sensor_id;sensor_type;location;lat;lon;timestamp;temperature;humidity
65573;SHT30;52214;50.940;13.996;2022-10-31T00:00:57;9.25;99.99
65573;SHT30;52214;50.940;13.996;2022-10-31T00:03:23;9.33;99.99
65573;SHT30;52214;50.940;13.996;2022-10-31T00:05:50;9.29;99.99
65573;SHT30;52214;50.940;13.996;2022-10-31T00:08:16;9.25;99.99
65573;SHT30;52214;50.940;13.996;2022-10-31T00:10:43;9.15;99.99
65573;SHT30;52214;50.940;13.996;2022-10-31T00:13:09;9.18;99.99
65573;SHT30;52214;50.940;13.996;2022-10-31T00:15:37;9.08;99.99
65573;SHT30;52214;50.940;13.996;2022-10-31T00:18:06;9.19;99.99
65573;SHT30;52214;50.940;13.996;2022-10-31T00:23:04;9.12;99.99
65573;SHT30;52214;50.940;13.996;2022-10-31T00:25:34;9.05;99.99
65573;SHT30;52214;50.940;13.996;2022-10-31T00:28:00;9.02;99.99
65573;SHT30;52214;50.940;13.996;2022-10-31T00:30:26;9.00;99.99
65573;SHT30;52214;50.940;13.996;2022-10-31T00:32:51;8.88;99.99
65573;SHT30;52214;50.940;13.996;2022-10-31T00:35:17;8.91;99.99
65573;SHT30;52214;50.940;13.996;2022-10-31T00:37:42;8.87;99.99
65573;SHT30;52214;50.940;13.996;2022-10-31T00:40:08;8.77;99.99
65573;SHT30;52214;50.940;13.996;2022-10-31T00:42:34;8.78;99.99
65573;SHT30;52214;50.940;13.996;2022-10-31T00:44:59;8.78;99.99
65573;SHT30;52214;50.940;13.996;2022-10-31T00:47:25;8.71;99.99
65573;SHT30;52214;50.940;13.996;2022-10-31T00:49:50;8.70;99.99
65573;SHT30;52214;50.940;13.996;2022-10-31T00:52:16;8.66;99.99
65573;SHT30;52214;50.940;13.996;2022-10-31T00:54:41;8.64;99.99
65573;SHT30;52214;50.940;13.996;2022-10-31T00:57:07;8.57;99.99
65573;SHT30;52214;50.940;13.996;2022-10-31T00:59:32;8.49;99.99
65573;SHT30;52214;50.940;13.996;2022-10-31T01:01:58;8.52;99.99
65573;SHT30;52214;50.940;13.996;2022-10-31T01:04:23;8.45;99.99
65573;SHT30;52214;50.940;13.996;2022-10-31T01:06:49;8.50;99.99
65573;SHT30;52214;50.940;13.996;2022-10-31T01:09:14;8.68;99.99
65573;SHT30;52214;50.940;13.996;2022-10-31T01:11:40;8.49;99.99
65573;SHT30;52214;50.940;13.996;2022-10-31T01:14:05;8.38;99.99
65573;SHT30;52214;50.940;13.996;2022-10-31T01:16:31;8.46;99.99
65573;SHT30;52214;50.940;13.996;2022-10-31T01:18:56;8.50;99.99
65573;SHT30;52214;50.940;13.996;2022-10-31T01:21:24;8.46;99.99
65573;SHT30;52214;50.940;13.996;2022-10-31T01:23:52;8.42;99.99
65573;SHT30;52214;50.940;13.996;2022-10-31T01:26:21;8.54;99.99
65573;SHT30;52214;50.940;13.996;2022-10-31T01:28:53;8.50;99.99
65573;SHT30;52214;50.940;13.996;2022-10-31T01:31:20;8.49;99.99
65573;SHT30;52214;50.940;13.996;2022-10-31T01:33:46;8.47;99.99
65573;SHT30;52214;50.940;13.996;2022-10-31T01:38:50;8.46;99.99
65573;SHT30;52214;50.940;13.996;2022-10-31T01:41:22;8.60;99.99
65573;SHT30;52214;50.940;13.996;2022-10-31T01:46:17;8.54;99.99
65573;SHT30;52214;50.940;13.996;2022-10-31T01:48:45;8.45;99.99
65573;SHT30;52214;50.940;13.996;2022-10-31T01:51:13;8.50;99.99
65573;SHT30;52214;50.940;13.996;2022-10-31T01:53:40;8.42;99.99
65573;SHT30;52214;50.940;13.996;2022-10-31T01:56:07;8.47;99.99
65573;SHT30;52214;50.940;13.996;2022-10-31T01:58:33;8.38;99.99
65573;SHT30;52214;50.940;13.996;2022-10-31T02:00:59;8.42;99.99
65573;SHT30;52214;50.940;13.996;2022-10-31T02:03:26;8.36;99.99
65573;SHT30;52214;50.940;13.996;2022-10-31T02:05:54;8.40;99.99
65573;SHT30;52214;50.940;13.996;2022-10-31T02:08:27;8.42;99.99
65573;SHT30;52214;50.940;13.996;2022-10-31T02:10:53;8.40;99.99
65573;SHT30;52214;50.940;13.996;2022-10-31T02:13:19;8.40;99.99
65573;SHT30;52214;50.940;13.996;2022-10-31T02:15:48;8.42;99.99
65573;SHT30;52214;50.940;13.996;2022-10-31T02:18:15;8.35;99.99
65573;SHT30;52214;50.940;13.996;2022-10-31T02:31:54;8.33;99.99
65573;SHT30;52214;50.940;13.996;2022-10-31T02:37:53;8.32;99.99
65573;SHT30;52214;50.940;13.996;2022-10-31T02:40:30;8.35;99.99
65573;SHT30;52214;50.940;13.996;2022-10-31T02:43:27;8.53;99.99
65573;SHT30;52214;50.940;13.996;2022-10-31T02:46:08;8.42;99.99
65573;SHT30;52214;50.940;13.996;2022-10-31T02:48:38;8.32;99.99
65573;SHT30;52214;50.940;13.996;2022-10-31T02:51:05;8.36;99.99
65573;SHT30;52214;50.940;13.996;2022-10-31T02:53:35;8.29;99.99
65573;SHT30;52214;50.940;13.996;2022-10-31T02:56:05;8.29;99.99
65573;SHT30;52214;50.940;13.996;2022-10-31T02:58:36;8.26;99.99
65573;SHT30;52214;50.940;13.996;2022-10-31T03:06:54;8.19;99.99
65573;SHT30;52214;50.940;13.996;2022-10-31T03:09:45;8.22;99.99
65573;SHT30;52214;50.940;13.996;2022-10-31T03:12:20;8.11;99.99
65573;SHT30;52214;50.940;13.996;2022-10-31T03:15:22;8.09;99.99
65573;SHT30;52214;50.940;13.996;2022-10-31T03:20:26;8.06;99.99
65573;SHT30;52214;50.940;13.996;2022-10-31T03:22:55;7.98;99.99
65573;SHT30;52214;50.940;13.996;2022-10-31T03:25:22;7.99;99.99
65573;SHT30;52214;50.940;13.996;2022-10-31T03:27:49;7.99;99.99
65573;SHT30;52214;50.940;13.996;2022-10-31T03:30:16;7.97;99.99
65573;SHT30;52214;50.940;13.996;2022-10-31T03:32:50;8.04;99.99
65573;SHT30;52214;50.940;13.996;2022-10-31T03:35:19;8.02;99.99
65573;SHT30;52214;50.940;13.996;2022-10-31T03:37:47;7.95;99.99
65573;SHT30;52214;50.940;13.996;2022-10-31T03:40:16;7.97;99.99
65573;SHT30;52214;50.940;13.996;2022-10-31T03:42:49;7.95;99.99
65573;SHT30;52214;50.940;13.996;2022-10-31T03:45:26;7.97;99.99
65573;SHT30;52214;50.940;13.996;2022-10-31T03:47:54;7.84;99.99
65573;SHT30;52214;50.940;13.996;2022-10-31T03:50:21;7.88;99.99
65573;SHT30;52214;50.940;13.996;2022-10-31T03:55:28;7.87;99.99
65573;SHT30;52214;50.940;13.996;2022-10-31T03:58:10;7.87;99.99
65573;SHT30;52214;50.940;13.996;2022-10-31T04:00:40;7.92;99.99
65573;SHT30;52214;50.940;13.996;2022-10-31T04:03:11;7.81;99.99
65573;SHT30;52214;50.940;13.996;2022-10-31T04:05:38;7.88;99.99
65573;SHT30;52214;50.940;13.996;2022-10-31T04:08:08;7.84;99.99
65573;SHT30;52214;50.940;13.996;2022-10-31T04:10:37;7.78;99.99
65573;SHT30;52214;50.940;13.996;2022-10-31T04:13:08;7.85;99.99
65573;SHT30;52214;50.940;13.996;2022-10-31T04:15:36;7.75;99.99
65573;SHT30;52214;50.940;13.996;2022-10-31T04:18:04;7.85;99.99
65573;SHT30;52214;50.940;13.996;2022-10-31T04:20:35;7.85;99.99
65573;SHT30;52214;50.940;13.996;2022-10-31T04:23:03;7.73;99.99
65573;SHT30;52214;50.940;13.996;2022-10-31T04:25:29;7.74;99.99
65573;SHT30;52214;50.940;13.996;2022-10-31T04:27:54;7.73;99.99
65573;SHT30;52214;50.940;13.996;2022-10-31T04:30:20;7.85;99.99
65573;SHT30;52214;50.940;13.996;2022-10-31T04:32:46;7.84;99.99
65573;SHT30;52214;50.940;13.996;2022-10-31T04:35:12;7.81;99.99
65573;SHT30;52214;50.940;13.996;2022-10-31T04:37:37;7.90;99.99
65573;SHT30;52214;50.940;13.996;2022-10-31T04:40:04;7.70;99.99
65573;SHT30;52214;50.940;13.996;2022-10-31T04:42:30;7.75;99.99
65573;SHT30;52214;50.940;13.996;2022-10-31T04:44:55;7.83;99.99
65573;SHT30;52214;50.940;13.996;2022-10-31T04:47:21;7.80;99.99
65573;SHT30;52214;50.940;13.996;2022-10-31T04:49:46;7.81;99.99
65573;SHT30;52214;50.940;13.996;2022-10-31T04:52:12;7.78;99.99
65573;SHT30;52214;50.940;13.996;2022-10-31T04:54:38;7.74;99.99
65573;SHT30;52214;50.940;13.996;2022-10-31T04:57:03;7.64;99.99
65573;SHT30;52214;50.940;13.996;2022-10-31T04:59:29;7.66;99.99
65573;SHT30;52214;50.940;13.996;2022-10-31T05:01:54;7.78;99.99
65573;SHT30;52214;50.940;13.996;2022-10-31T05:04:20;7.69;99.99
65573;SHT30;52214;50.940;13.996;2022-10-31T05:06:45;7.66;99.99
65573;SHT30;52214;50.940;13.996;2022-10-31T05:09:11;7.59;99.99
65573;SHT30;52214;50.940;13.996;2022-10-31T05:11:36;7.53;99.99
65573;SHT30;52214;50.940;13.996;2022-10-31T05:14:02;7.55;99.99
65573;SHT30;52214;50.940;13.996;2022-10-31T05:16:28;7.45;99.99
65573;SHT30;52214;50.940;13.996;2022-10-31T05:18:54;7.49;99.99
65573;SHT30;52214;50.940;13.996;2022-10-31T05:21:19;7.49;99.99
65573;SHT30;52214;50.940;13.996;2022-10-31T05:23:45;7.38;99.99
65573;SHT30;52214;50.940;13.996;2022-10-31T05:26:10;7.33;99.99
65573;SHT30;52214;50.940;13.996;2022-10-31T05:28:36;7.38;99.99
65573;SHT30;52214;50.940;13.996;2022-10-31T05:31:01;7.30;99.99
65573;SHT30;52214;50.940;13.996;2022-10-31T05:33:27;7.43;99.99
65573;SHT30;52214;50.940;13.996;2022-10-31T05:35:52;7.49;99.99
65573;SHT30;52214;50.940;13.996;2022-10-31T05:38:18;7.45;99.99
65573;SHT30;52214;50.940;13.996;2022-10-31T05:40:43;7.59;99.99
65573;SHT30;52214;50.940;13.996;2022-10-31T05:43:09;7.42;99.99
65573;SHT30;52214;50.940;13.996;2022-10-31T05:45:34;7.36;99.99
65573;SHT30;52214;50.940;13.996;2022-10-31T05:48:01;7.52;99.99
65573;SHT30;52214;50.940;13.996;2022-10-31T05:50:29;7.39;99.99
65573;SHT30;52214;50.940;13.996;2022-10-31T05:53:04;7.42;99.99
65573;SHT30;52214;50.940;13.996;2022-10-31T05:55:30;7.49;99.99
65573;SHT30;52214;50.940;13.996;2022-10-31T05:57:56;7.40;99.99
65573;SHT30;52214;50.940;13.996;2022-10-31T06:00:22;7.46;99.99
65573;SHT30;52214;50.940;13.996;2022-10-31T06:02:49;7.42;99.99
65573;SHT30;52214;50.940;13.996;2022-10-31T06:05:14;7.40;99.99
65573;SHT30;52214;50.940;13.996;2022-10-31T06:07:40;7.50;99.99
65573;SHT30;52214;50.940;13.996;2022-10-31T06:10:07;7.52;99.99
65573;SHT30;52214;50.940;13.996;2022-10-31T06:12:33;7.49;99.99
65573;SHT30;52214;50.940;13.996;2022-10-31T06:15:06;7.45;99.99
65573;SHT30;52214;50.940;13.996;2022-10-31T06:17:33;7.46;99.99
65573;SHT30;52214;50.940;13.996;2022-10-31T06:20:00;7.52;99.99
65573;SHT30;52214;50.940;13.996;2022-10-31T06:22:25;7.56;99.99
65573;SHT30;52214;50.940;13.996;2022-10-31T06:24:51;7.56;99.99
65573;SHT30;52214;50.940;13.996;2022-10-31T06:27:16;7.67;99.99
65573;SHT30;52214;50.940;13.996;2022-10-31T06:29:42;7.71;99.99
65573;SHT30;52214;50.940;13.996;2022-10-31T06:32:10;7.56;99.99
65573;SHT30;52214;50.940;13.996;2022-10-31T06:34:36;7.52;99.99
65573;SHT30;52214;50.940;13.996;2022-10-31T06:37:02;7.69;99.99
65573;SHT30;52214;50.940;13.996;2022-10-31T06:39:27;7.88;99.99
65573;SHT30;52214;50.940;13.996;2022-10-31T06:41:53;7.74;99.99
65573;SHT30;52214;50.940;13.996;2022-10-31T06:44:18;7.78;99.99
65573;SHT30;52214;50.940;13.996;2022-10-31T06:46:46;7.92;99.99
65573;SHT30;52214;50.940;13.996;2022-10-31T06:49:13;7.98;99.99
65573;SHT30;52214;50.940;13.996;2022-10-31T06:51:38;7.99;99.99
65573;SHT30;52214;50.940;13.996;2022-10-31T06:54:04;8.08;99.99
65573;SHT30;52214;50.940;13.996;2022-10-31T06:56:29;8.05;99.99
65573;SHT30;52214;50.940;13.996;2022-10-31T06:58:55;8.08;99.99
65573;SHT30;52214;50.940;13.996;2022-10-31T07:01:20;8.24;99.99
65573;SHT30;52214;50.940;13.996;2022-10-31T07:03:46;8.19;99.99
65573;SHT30;52214;50.940;13.996;2022-10-31T07:06:11;8.09;99.99
65573;SHT30;52214;50.940;13.996;2022-10-31T07:08:37;8.18;99.99
65573;SHT30;52214;50.940;13.996;2022-10-31T07:11:03;8.40;99.99
65573;SHT30;52214;50.940;13.996;2022-10-31T07:13:28;8.40;99.99
65573;SHT30;52214;50.940;13.996;2022-10-31T07:15:58;8.33;99.99
65573;SHT30;52214;50.940;13.996;2022-10-31T07:18:24;8.28;99.99
65573;SHT30;52214;50.940;13.996;2022-10-31T07:20:51;8.36;99.99
65573;SHT30;52214;50.940;13.996;2022-10-31T07:23:17;8.38;99.99
65573;SHT30;52214;50.940;13.996;2022-10-31T07:25:42;8.38;99.99
65573;SHT30;52214;50.940;13.996;2022-10-31T07:28:09;8.52;99.99
65573;SHT30;52214;50.940;13.996;2022-10-31T07:30:35;8.54;99.99
65573;SHT30;52214;50.940;13.996;2022-10-31T07:33:01;8.50;99.99
65573;SHT30;52214;50.940;13.996;2022-10-31T07:35:28;8.63;99.99
65573;SHT30;52214;50.940;13.996;2022-10-31T07:37:54;8.66;99.99
65573;SHT30;52214;50.940;13.996;2022-10-31T07:40:21;8.88;99.99
65573;SHT30;52214;50.940;13.996;2022-10-31T07:42:51;8.71;99.99
65573;SHT30;52214;50.940;13.996;2022-10-31T07:45:19;9.01;99.99
65573;SHT30;52214;50.940;13.996;2022-10-31T07:47:47;8.92;99.99
65573;SHT30;52214;50.940;13.996;2022-10-31T07:50:16;9.02;99.99
65573;SHT30;52214;50.940;13.996;2022-10-31T07:52:42;9.05;99.99
65573;SHT30;52214;50.940;13.996;2022-10-31T07:55:08;9.14;99.99
65573;SHT30;52214;50.940;13.996;2022-10-31T07:57:33;9.26;99.99
65573;SHT30;52214;50.940;13.996;2022-10-31T07:59:59;9.30;99.99
65573;SHT30;52214;50.940;13.996;2022-10-31T08:02:25;9.50;99.99
65573;SHT30;52214;50.940;13.996;2022-10-31T08:04:51;9.70;99.99
65573;SHT30;52214;50.940;13.996;2022-10-31T08:07:17;9.71;99.99
65573;SHT30;52214;50.940;13.996;2022-10-31T08:09:43;9.97;99.99
65573;SHT30;52214;50.940;13.996;2022-10-31T08:12:08;9.94;99.99
65573;SHT30;52214;50.940;13.996;2022-10-31T08:14:34;10.08;99.99
65573;SHT30;52214;50.940;13.996;2022-10-31T08:16:59;9.99;99.99
65573;SHT30;52214;50.940;13.996;2022-10-31T08:19:25;10.25;99.99
65573;SHT30;52214;50.940;13.996;2022-10-31T08:21:51;10.32;99.99
65573;SHT30;52214;50.940;13.996;2022-10-31T08:24:18;10.40;99.99
65573;SHT30;52214;50.940;13.996;2022-10-31T08:26:44;10.66;99.99
65573;SHT30;52214;50.940;13.996;2022-10-31T08:29:09;10.45;99.99
65573;SHT30;52214;50.940;13.996;2022-10-31T08:31:35;10.87;98.26
65573;SHT30;52214;50.940;13.996;2022-10-31T08:34:00;10.87;99.19
65573;SHT30;52214;50.940;13.996;2022-10-31T08:36:27;11.04;99.52
65573;SHT30;52214;50.940;13.996;2022-10-31T08:38:52;11.21;98.48
65573;SHT30;52214;50.940;13.996;2022-10-31T08:41:18;11.25;97.24
65573;SHT30;52214;50.940;13.996;2022-10-31T08:43:44;11.47;96.94
65573;SHT30;52214;50.940;13.996;2022-10-31T08:46:09;11.70;97.22
65573;SHT30;52214;50.940;13.996;2022-10-31T08:48:35;11.47;96.69
65573;SHT30;52214;50.940;13.996;2022-10-31T08:51:00;11.83;96.33
65573;SHT30;52214;50.940;13.996;2022-10-31T08:53:26;12.17;96.91
65573;SHT30;52214;50.940;13.996;2022-10-31T08:55:55;12.06;96.60
65573;SHT30;52214;50.940;13.996;2022-10-31T08:58:21;12.64;95.63
65573;SHT30;52214;50.940;13.996;2022-10-31T09:00:49;12.90;94.34
65573;SHT30;52214;50.940;13.996;2022-10-31T09:03:23;13.66;91.51
65573;SHT30;52214;50.940;13.996;2022-10-31T09:05:49;14.21;89.35
65573;SHT30;52214;50.940;13.996;2022-10-31T09:08:16;14.14;89.46
65573;SHT30;52214;50.940;13.996;2022-10-31T09:10:42;15.05;86.48
65573;SHT30;52214;50.940;13.996;2022-10-31T09:13:13;14.07;88.74
65573;SHT30;52214;50.940;13.996;2022-10-31T09:15:41;14.43;88.99
65573;SHT30;52214;50.940;13.996;2022-10-31T09:18:07;14.21;88.87
65573;SHT30;52214;50.940;13.996;2022-10-31T09:20:35;14.18;88.94
65573;SHT30;52214;50.940;13.996;2022-10-31T09:23:10;13.85;90.35
65573;SHT30;52214;50.940;13.996;2022-10-31T09:25:36;13.63;91.31
65573;SHT30;52214;50.940;13.996;2022-10-31T09:28:03;13.67;92.44
65573;SHT30;52214;50.940;13.996;2022-10-31T09:30:31;13.71;92.33
65573;SHT30;52214;50.940;13.996;2022-10-31T09:32:59;13.63;92.63
65573;SHT30;52214;50.940;13.996;2022-10-31T09:35:25;13.81;92.10
65573;SHT30;52214;50.940;13.996;2022-10-31T09:38:01;13.80;92.32
65573;SHT30;52214;50.940;13.996;2022-10-31T09:40:47;13.91;92.72
65573;SHT30;52214;50.940;13.996;2022-10-31T09:43:29;14.00;92.49
65573;SHT30;52214;50.940;13.996;2022-10-31T09:46:24;13.97;93.64
65573;SHT30;52214;50.940;13.996;2022-10-31T09:51:46;14.15;94.34
65573;SHT30;52214;50.940;13.996;2022-10-31T09:56:45;14.35;92.90
65573;SHT30;52214;50.940;13.996;2022-10-31T09:59:24;14.66;92.26
65573;SHT30;52214;50.940;13.996;2022-10-31T10:04:37;14.62;93.41
65573;SHT30;52214;50.940;13.996;2022-10-31T10:07:17;14.94;92.97
65573;SHT30;52214;50.940;13.996;2022-10-31T10:09:44;15.27;92.50
65573;SHT30;52214;50.940;13.996;2022-10-31T10:12:40;15.46;91.28
65573;SHT30;52214;50.940;13.996;2022-10-31T10:26:21;16.29;83.09
65573;SHT30;52214;50.940;13.996;2022-10-31T10:28:51;16.73;85.11
65573;SHT30;52214;50.940;13.996;2022-10-31T10:31:27;16.79;84.23
65573;SHT30;52214;50.940;13.996;2022-10-31T10:34:16;16.99;82.82
65573;SHT30;52214;50.940;13.996;2022-10-31T10:36:51;17.03;80.79
65573;SHT30;52214;50.940;13.996;2022-10-31T10:39:21;17.08;80.55
65573;SHT30;52214;50.940;13.996;2022-10-31T10:41:49;17.27;80.60
65573;SHT30;52214;50.940;13.996;2022-10-31T10:44:35;17.70;78.16
65573;SHT30;52214;50.940;13.996;2022-10-31T10:47:21;17.87;76.63
65573;SHT30;52214;50.940;13.996;2022-10-31T10:50:19;18.76;75.47
65573;SHT30;52214;50.940;13.996;2022-10-31T10:58:14;20.21;70.39
65573;SHT30;52214;50.940;13.996;2022-10-31T11:00:50;20.04;69.29
65573;SHT30;52214;50.940;13.996;2022-10-31T11:03:17;20.22;69.24
65573;SHT30;52214;50.940;13.996;2022-10-31T11:13:27;20.86;69.55
65573;SHT30;52214;50.940;13.996;2022-10-31T11:16:00;20.73;68.13
65573;SHT30;52214;50.940;13.996;2022-10-31T11:18:30;21.06;68.77
65573;SHT30;52214;50.940;13.996;2022-10-31T11:21:00;20.94;68.54
65573;SHT30;52214;50.940;13.996;2022-10-31T11:23:27;21.35;68.90
65573;SHT30;52214;50.940;13.996;2022-10-31T11:25:56;22.40;64.87
65573;SHT30;52214;50.940;13.996;2022-10-31T11:28:22;22.95;62.65
65573;SHT30;52214;50.940;13.996;2022-10-31T11:30:56;23.59;61.49
65573;SHT30;52214;50.940;13.996;2022-10-31T11:33:31;23.82;58.85
65573;SHT30;52214;50.940;13.996;2022-10-31T11:35:58;24.10;59.57
65573;SHT30;52214;50.940;13.996;2022-10-31T11:38:31;25.24;57.42
65573;SHT30;52214;50.940;13.996;2022-10-31T11:41:07;25.38;56.71
65573;SHT30;52214;50.940;13.996;2022-10-31T11:43:34;25.77;55.07
65573;SHT30;52214;50.940;13.996;2022-10-31T11:46:09;25.62;54.92
65573;SHT30;52214;50.940;13.996;2022-10-31T11:48:36;25.85;54.56
65573;SHT30;52214;50.940;13.996;2022-10-31T11:51:02;26.55;53.32
65573;SHT30;52214;50.940;13.996;2022-10-31T11:53:33;27.55;50.72
65573;SHT30;52214;50.940;13.996;2022-10-31T11:56:09;27.32;52.24
65573;SHT30;52214;50.940;13.996;2022-10-31T11:58:35;26.67;55.31
65573;SHT30;52214;50.940;13.996;2022-10-31T12:01:01;26.95;53.87
65573;SHT30;52214;50.940;13.996;2022-10-31T12:06:07;26.50;53.71
65573;SHT30;52214;50.940;13.996;2022-10-31T12:08:35;27.22;50.94
65573;SHT30;52214;50.940;13.996;2022-10-31T12:11:25;28.50;50.85
65573;SHT30;52214;50.940;13.996;2022-10-31T12:19:42;28.87;47.57
65573;SHT30;52214;50.940;13.996;2022-10-31T12:31:24;26.84;53.42
65573;SHT30;52214;50.940;13.996;2022-10-31T12:34:09;26.58;52.87
65573;SHT30;52214;50.940;13.996;2022-10-31T12:39:32;28.12;50.31
65573;SHT30;52214;50.940;13.996;2022-10-31T12:45:02;27.77;47.18
65573;SHT30;52214;50.940;13.996;2022-10-31T12:48:00;29.34;46.23
65573;SHT30;52214;50.940;13.996;2022-10-31T12:58:49;29.88;46.16
65573;SHT30;52214;50.940;13.996;2022-10-31T13:01:29;29.36;46.35
65573;SHT30;52214;50.940;13.996;2022-10-31T13:04:28;31.02;43.95
65573;SHT30;52214;50.940;13.996;2022-10-31T13:07:02;29.60;46.20
65573;SHT30;52214;50.940;13.996;2022-10-31T13:09:47;30.13;45.49
65573;SHT30;52214;50.940;13.996;2022-10-31T13:12:18;30.25;44.17
65573;SHT30;52214;50.940;13.996;2022-10-31T13:14:58;29.78;45.80
65573;SHT30;52214;50.940;13.996;2022-10-31T13:17:31;29.54;45.53
65573;SHT30;52214;50.940;13.996;2022-10-31T13:20:13;29.02;45.86
65573;SHT30;52214;50.940;13.996;2022-10-31T13:22:45;29.40;47.10
65573;SHT30;52214;50.940;13.996;2022-10-31T13:25:16;30.01;45.10
65573;SHT30;52214;50.940;13.996;2022-10-31T13:27:53;30.64;44.23
65573;SHT30;52214;50.940;13.996;2022-10-31T13:30:23;28.95;47.36
65573;SHT30;52214;50.940;13.996;2022-10-31T13:35:43;28.75;47.54
65573;SHT30;52214;50.940;13.996;2022-10-31T13:48:57;30.43;43.71
65573;SHT30;52214;50.940;13.996;2022-10-31T13:51:31;30.47;43.48
65573;SHT30;52214;50.940;13.996;2022-10-31T13:54:00;29.23;45.73
65573;SHT30;52214;50.940;13.996;2022-10-31T13:56:28;29.74;43.52
65573;SHT30;52214;50.940;13.996;2022-10-31T13:59:10;29.76;43.75
65573;SHT30;52214;50.940;13.996;2022-10-31T14:01:51;28.53;46.58
65573;SHT30;52214;50.940;13.996;2022-10-31T14:04:22;28.27;47.10
65573;SHT30;52214;50.940;13.996;2022-10-31T14:07:13;27.94;47.67
65573;SHT30;52214;50.940;13.996;2022-10-31T14:09:54;27.76;49.13
65573;SHT30;52214;50.940;13.996;2022-10-31T14:15:19;26.58;52.33
65573;SHT30;52214;50.940;13.996;2022-10-31T14:17:48;27.05;51.52
65573;SHT30;52214;50.940;13.996;2022-10-31T14:22:40;25.61;55.38
65573;SHT30;52214;50.940;13.996;2022-10-31T14:25:35;25.65;55.20
65573;SHT30;52214;50.940;13.996;2022-10-31T14:28:51;26.02;53.78
65573;SHT30;52214;50.940;13.996;2022-10-31T14:30:54;25.71;55.29
65573;SHT30;52214;50.940;13.996;2022-10-31T14:33:22;25.70;53.57
65573;SHT30;52214;50.940;13.996;2022-10-31T14:36:00;23.47;60.23
65573;SHT30;52214;50.940;13.996;2022-10-31T14:44:10;21.67;64.94
65573;SHT30;52214;50.940;13.996;2022-10-31T14:46:50;21.04;66.47
65573;SHT30;52214;50.940;13.996;2022-10-31T14:49:26;21.07;67.57
65573;SHT30;52214;50.940;13.996;2022-10-31T14:51:56;20.46;67.86
65573;SHT30;52214;50.940;13.996;2022-10-31T14:54:33;19.73;69.94
65573;SHT30;52214;50.940;13.996;2022-10-31T14:57:12;19.12;71.75
65573;SHT30;52214;50.940;13.996;2022-10-31T14:59:43;17.84;74.81
65573;SHT30;52214;50.940;13.996;2022-10-31T15:02:17;17.36;76.38
65573;SHT30;52214;50.940;13.996;2022-10-31T15:04:46;17.50;76.00
65573;SHT30;52214;50.940;13.996;2022-10-31T15:07:18;17.19;76.23
65573;SHT30;52214;50.940;13.996;2022-10-31T15:09:55;17.14;76.60
65573;SHT30;52214;50.940;13.996;2022-10-31T15:12:28;16.91;77.05
65573;SHT30;52214;50.940;13.996;2022-10-31T15:14:54;16.76;77.37
65573;SHT30;52214;50.940;13.996;2022-10-31T15:17:22;16.49;77.65
65573;SHT30;52214;50.940;13.996;2022-10-31T15:19:49;16.24;78.55
65573;SHT30;52214;50.940;13.996;2022-10-31T15:22:20;15.91;79.79
65573;SHT30;52214;50.940;13.996;2022-10-31T15:24:46;15.60;81.05
65573;SHT30;52214;50.940;13.996;2022-10-31T15:27:15;15.53;81.33
65573;SHT30;52214;50.940;13.996;2022-10-31T15:29:49;15.42;81.77
65573;SHT30;52214;50.940;13.996;2022-10-31T15:32:19;15.25;82.47
65573;SHT30;52214;50.940;13.996;2022-10-31T15:34:46;15.04;83.41
65573;SHT30;52214;50.940;13.996;2022-10-31T15:37:14;15.11;84.15
65573;SHT30;52214;50.940;13.996;2022-10-31T15:39:41;15.07;83.89
65573;SHT30;52214;50.940;13.996;2022-10-31T15:42:20;15.15;83.82
65573;SHT30;52214;50.940;13.996;2022-10-31T15:44:49;15.01;84.07
65573;SHT30;52214;50.940;13.996;2022-10-31T15:47:21;14.50;84.69
65573;SHT30;52214;50.940;13.996;2022-10-31T15:49:53;14.18;86.20
65573;SHT30;52214;50.940;13.996;2022-10-31T15:52:36;13.88;87.07
65573;SHT30;52214;50.940;13.996;2022-10-31T15:57:50;13.49;89.28
65573;SHT30;52214;50.940;13.996;2022-10-31T16:00:23;13.49;89.53
65573;SHT30;52214;50.940;13.996;2022-10-31T16:02:49;13.50;89.69
65573;SHT30;52214;50.940;13.996;2022-10-31T16:05:18;13.26;90.78
65573;SHT30;52214;50.940;13.996;2022-10-31T16:07:51;13.22;90.86
65573;SHT30;52214;50.940;13.996;2022-10-31T16:10:26;13.10;91.45
65573;SHT30;52214;50.940;13.996;2022-10-31T16:12:52;12.95;91.87
65573;SHT30;52214;50.940;13.996;2022-10-31T16:15:20;12.94;91.51
65573;SHT30;52214;50.940;13.996;2022-10-31T16:17:48;12.90;92.05
65573;SHT30;52214;50.940;13.996;2022-10-31T16:20:26;12.90;92.13
65573;SHT30;52214;50.940;13.996;2022-10-31T16:22:53;12.76;92.72
65573;SHT30;52214;50.940;13.996;2022-10-31T16:25:36;12.72;93.20
65573;SHT30;52214;50.940;13.996;2022-10-31T16:28:05;12.61;93.39
65573;SHT30;52214;50.940;13.996;2022-10-31T16:30:42;12.52;93.88
65573;SHT30;52214;50.940;13.996;2022-10-31T16:35:46;12.60;94.52
65573;SHT30;52214;50.940;13.996;2022-10-31T16:38:12;12.70;95.08
65573;SHT30;52214;50.940;13.996;2022-10-31T16:40:38;12.79;94.76
65573;SHT30;52214;50.940;13.996;2022-10-31T16:43:04;12.76;95.05
65573;SHT30;52214;50.940;13.996;2022-10-31T16:45:31;12.56;94.98
65573;SHT30;52214;50.940;13.996;2022-10-31T16:48:08;12.46;95.03
65573;SHT30;52214;50.940;13.996;2022-10-31T16:50:36;12.35;95.77
65573;SHT30;52214;50.940;13.996;2022-10-31T16:53:02;12.18;95.39
65573;SHT30;52214;50.940;13.996;2022-10-31T16:55:28;12.15;95.27
65573;SHT30;52214;50.940;13.996;2022-10-31T16:57:55;12.15;94.45
65573;SHT30;52214;50.940;13.996;2022-10-31T17:00:22;12.10;94.92
65573;SHT30;52214;50.940;13.996;2022-10-31T17:02:50;11.99;95.79
65573;SHT30;52214;50.940;13.996;2022-10-31T17:05:17;11.99;95.90
65573;SHT30;52214;50.940;13.996;2022-10-31T17:07:43;11.93;96.84
65573;SHT30;52214;50.940;13.996;2022-10-31T17:10:10;11.90;97.09
65573;SHT30;52214;50.940;13.996;2022-10-31T17:12:37;11.71;97.63
65573;SHT30;52214;50.940;13.996;2022-10-31T17:15:05;11.62;97.86
65573;SHT30;52214;50.940;13.996;2022-10-31T17:17:31;11.59;97.94
65573;SHT30;52214;50.940;13.996;2022-10-31T17:19:57;11.66;98.70
65573;SHT30;52214;50.940;13.996;2022-10-31T17:22:22;11.74;98.50
65573;SHT30;52214;50.940;13.996;2022-10-31T17:24:48;11.63;98.36
65573;SHT30;52214;50.940;13.996;2022-10-31T17:27:13;11.63;98.28
65573;SHT30;52214;50.940;13.996;2022-10-31T17:29:39;11.62;98.91
65573;SHT30;52214;50.940;13.996;2022-10-31T17:32:05;11.60;98.67
65573;SHT30;52214;50.940;13.996;2022-10-31T17:34:30;11.53;98.96
65573;SHT30;52214;50.940;13.996;2022-10-31T17:36:56;11.46;98.95
65573;SHT30;52214;50.940;13.996;2022-10-31T17:39:21;11.47;99.13
65573;SHT30;52214;50.940;13.996;2022-10-31T17:41:51;11.50;99.24
65573;SHT30;52214;50.940;13.996;2022-10-31T17:44:17;11.52;99.12